sensor_id;sensor_type;location;lat;lon;timestamp;P1;durP1;ratioP1;P2;durP2;ratioP2
38725;SDS011;24474;48.906;8.808;2023-07-24T00:01:39;9.98;;;5.75;;
38725;SDS011;24474;48.906;8.808;2023-07-24T00:04:08;8.27;;;5.57;;
38725;SDS011;24474;48.906;8.808;2023-07-24T00:06:34;9.60;;;6.03;;
38725;SDS011;24474;48.906;8.808;2023-07-24T00:09:02;10.93;;;6.60;;
38725;SDS011;24474;48.906;8.808;2023-07-24T00:11:28;11.00;;;6.68;;
38725;SDS011;24474;48.906;8.808;2023-07-24T00:13:54;10.27;;;6.50;;
38725;SDS011;24474;48.906;8.808;2023-07-24T00:16:21;10.38;;;6.72;;
38725;SDS011;24474;48.906;8.808;2023-07-24T00:18:47;10.20;;;6.38;;
38725;SDS011;24474;48.906;8.808;2023-07-24T00:21:14;9.63;;;6.07;;
38725;SDS011;24474;48.906;8.808;2023-07-24T00:23:41;13.25;;;6.07;;
38725;SDS011;24474;48.906;8.808;2023-07-24T00:26:06;10.68;;;6.65;;
38725;SDS011;24474;48.906;8.808;2023-07-24T00:28:32;10.40;;;5.85;;
38725;SDS011;24474;48.906;8.808;2023-07-24T00:30:58;10.15;;;6.43;;
38725;SDS011;24474;48.906;8.808;2023-07-24T00:33:24;9.45;;;5.95;;
38725;SDS011;24474;48.906;8.808;2023-07-24T00:35:49;13.18;;;6.63;;
38725;SDS011;24474;48.906;8.808;2023-07-24T00:38:15;9.50;;;6.10;;
38725;SDS011;24474;48.906;8.808;2023-07-24T00:40:40;10.52;;;6.07;;
38725;SDS011;24474;48.906;8.808;2023-07-24T00:43:06;8.70;;;5.45;;
38725;SDS011;24474;48.906;8.808;2023-07-24T00:45:32;9.73;;;6.38;;
38725;SDS011;24474;48.906;8.808;2023-07-24T00:47:58;11.77;;;6.38;;
38725;SDS011;24474;48.906;8.808;2023-07-24T00:50:24;11.45;;;6.68;;
38725;SDS011;24474;48.906;8.808;2023-07-24T00:52:51;10.45;;;6.18;;
38725;SDS011;24474;48.906;8.808;2023-07-24T00:55:17;9.27;;;5.93;;
38725;SDS011;24474;48.906;8.808;2023-07-24T00:57:43;9.63;;;6.10;;
38725;SDS011;24474;48.906;8.808;2023-07-24T01:00:10;10.25;;;6.50;;
38725;SDS011;24474;48.906;8.808;2023-07-24T01:02:36;11.73;;;6.57;;
38725;SDS011;24474;48.906;8.808;2023-07-24T01:05:02;8.57;;;6.03;;
38725;SDS011;24474;48.906;8.808;2023-07-24T01:07:28;10.57;;;6.22;;
38725;SDS011;24474;48.906;8.808;2023-07-24T01:09:54;10.45;;;6.15;;
38725;SDS011;24474;48.906;8.808;2023-07-24T01:12:26;9.80;;;6.30;;
38725;SDS011;24474;48.906;8.808;2023-07-24T01:15:06;9.15;;;6.22;;
38725;SDS011;24474;48.906;8.808;2023-07-24T01:17:39;10.77;;;6.65;;
38725;SDS011;24474;48.906;8.808;2023-07-24T01:22:38;10.20;;;6.40;;
38725;SDS011;24474;48.906;8.808;2023-07-24T01:27:48;9.98;;;6.40;;
38725;SDS011;24474;48.906;8.808;2023-07-24T01:30:16;9.55;;;6.43;;
38725;SDS011;24474;48.906;8.808;2023-07-24T01:32:43;9.82;;;6.38;;
38725;SDS011;24474;48.906;8.808;2023-07-24T01:35:09;11.30;;;6.70;;
38725;SDS011;24474;48.906;8.808;2023-07-24T01:37:34;8.82;;;6.22;;
38725;SDS011;24474;48.906;8.808;2023-07-24T01:40:04;9.52;;;6.13;;
38725;SDS011;24474;48.906;8.808;2023-07-24T01:42:33;10.18;;;6.05;;
38725;SDS011;24474;48.906;8.808;2023-07-24T01:45:01;10.40;;;6.30;;
38725;SDS011;24474;48.906;8.808;2023-07-24T01:47:28;12.80;;;6.35;;
38725;SDS011;24474;48.906;8.808;2023-07-24T01:49:54;10.70;;;6.40;;
38725;SDS011;24474;48.906;8.808;2023-07-24T01:52:20;9.80;;;6.50;;
38725;SDS011;24474;48.906;8.808;2023-07-24T01:54:46;10.45;;;6.75;;
38725;SDS011;24474;48.906;8.808;2023-07-24T01:57:12;9.60;;;6.30;;
38725;SDS011;24474;48.906;8.808;2023-07-24T01:59:37;9.93;;;6.53;;
38725;SDS011;24474;48.906;8.808;2023-07-24T02:02:03;8.52;;;5.95;;
38725;SDS011;24474;48.906;8.808;2023-07-24T02:04:29;9.52;;;6.43;;
38725;SDS011;24474;48.906;8.808;2023-07-24T02:06:54;9.88;;;6.55;;
38725;SDS011;24474;48.906;8.808;2023-07-24T02:09:20;9.27;;;6.18;;
38725;SDS011;24474;48.906;8.808;2023-07-24T02:11:46;9.80;;;6.68;;
38725;SDS011;24474;48.906;8.808;2023-07-24T02:14:13;10.05;;;6.00;;
38725;SDS011;24474;48.906;8.808;2023-07-24T02:16:39;11.45;;;6.10;;
38725;SDS011;24474;48.906;8.808;2023-07-24T02:19:05;9.30;;;6.53;;
38725;SDS011;24474;48.906;8.808;2023-07-24T02:21:31;9.80;;;6.53;;
38725;SDS011;24474;48.906;8.808;2023-07-24T02:23:57;9.93;;;6.43;;
38725;SDS011;24474;48.906;8.808;2023-07-24T02:26:23;9.20;;;5.70;;
38725;SDS011;24474;48.906;8.808;2023-07-24T02:28:49;8.77;;;6.07;;
38725;SDS011;24474;48.906;8.808;2023-07-24T02:31:14;8.82;;;6.38;;
38725;SDS011;24474;48.906;8.808;2023-07-24T02:33:41;10.45;;;6.35;;
38725;SDS011;24474;48.906;8.808;2023-07-24T02:36:06;9.90;;;6.20;;
38725;SDS011;24474;48.906;8.808;2023-07-24T02:38:32;8.98;;;6.28;;
38725;SDS011;24474;48.906;8.808;2023-07-24T02:40:57;10.15;;;6.45;;
38725;SDS011;24474;48.906;8.808;2023-07-24T02:43:23;8.30;;;5.95;;
38725;SDS011;24474;48.906;8.808;2023-07-24T02:45:49;9.73;;;6.05;;
38725;SDS011;24474;48.906;8.808;2023-07-24T02:48:14;10.30;;;6.57;;
38725;SDS011;24474;48.906;8.808;2023-07-24T02:50:40;12.05;;;6.55;;
38725;SDS011;24474;48.906;8.808;2023-07-24T02:53:06;9.15;;;6.32;;
38725;SDS011;24474;48.906;8.808;2023-07-24T02:55:31;9.82;;;6.75;;
38725;SDS011;24474;48.906;8.808;2023-07-24T02:57:58;12.00;;;6.63;;
38725;SDS011;24474;48.906;8.808;2023-07-24T03:00:24;9.93;;;6.28;;
38725;SDS011;24474;48.906;8.808;2023-07-24T03:02:50;13.90;;;6.57;;
38725;SDS011;24474;48.906;8.808;2023-07-24T03:05:16;8.25;;;5.65;;
38725;SDS011;24474;48.906;8.808;2023-07-24T03:07:41;9.05;;;6.13;;
38725;SDS011;24474;48.906;8.808;2023-07-24T03:10:07;9.00;;;6.13;;
38725;SDS011;24474;48.906;8.808;2023-07-24T03:12:33;9.15;;;6.05;;
38725;SDS011;24474;48.906;8.808;2023-07-24T03:14:59;9.57;;;6.38;;
38725;SDS011;24474;48.906;8.808;2023-07-24T03:17:24;9.70;;;6.35;;
38725;SDS011;24474;48.906;8.808;2023-07-24T03:19:50;9.23;;;6.07;;
38725;SDS011;24474;48.906;8.808;2023-07-24T03:22:15;11.15;;;6.05;;
38725;SDS011;24474;48.906;8.808;2023-07-24T03:24:41;10.27;;;6.28;;
38725;SDS011;24474;48.906;8.808;2023-07-24T03:27:07;8.77;;;6.05;;
38725;SDS011;24474;48.906;8.808;2023-07-24T03:29:32;8.57;;;6.05;;
38725;SDS011;24474;48.906;8.808;2023-07-24T03:31:58;9.40;;;6.10;;
38725;SDS011;24474;48.906;8.808;2023-07-24T03:34:23;9.65;;;6.72;;
38725;SDS011;24474;48.906;8.808;2023-07-24T03:36:49;9.90;;;6.05;;
38725;SDS011;24474;48.906;8.808;2023-07-24T03:39:15;11.60;;;6.28;;
38725;SDS011;24474;48.906;8.808;2023-07-24T03:41:41;9.63;;;6.43;;
38725;SDS011;24474;48.906;8.808;2023-07-24T03:44:07;9.45;;;6.00;;
38725;SDS011;24474;48.906;8.808;2023-07-24T03:46:33;9.55;;;6.10;;
38725;SDS011;24474;48.906;8.808;2023-07-24T03:48:59;8.23;;;5.80;;
38725;SDS011;24474;48.906;8.808;2023-07-24T03:51:24;9.65;;;6.22;;
38725;SDS011;24474;48.906;8.808;2023-07-24T03:53:50;9.85;;;6.85;;
38725;SDS011;24474;48.906;8.808;2023-07-24T03:56:15;10.80;;;6.30;;
38725;SDS011;24474;48.906;8.808;2023-07-24T03:58:41;10.20;;;6.43;;
38725;SDS011;24474;48.906;8.808;2023-07-24T04:01:10;11.10;;;6.57;;
38725;SDS011;24474;48.906;8.808;2023-07-24T04:03:35;10.00;;;6.40;;
38725;SDS011;24474;48.906;8.808;2023-07-24T04:06:01;11.07;;;6.72;;
38725;SDS011;24474;48.906;8.808;2023-07-24T04:08:27;9.23;;;6.10;;
38725;SDS011;24474;48.906;8.808;2023-07-24T04:10:52;10.05;;;6.32;;
38725;SDS011;24474;48.906;8.808;2023-07-24T04:13:18;9.80;;;6.40;;
38725;SDS011;24474;48.906;8.808;2023-07-24T04:15:44;11.13;;;6.55;;
38725;SDS011;24474;48.906;8.808;2023-07-24T04:18:10;11.25;;;6.65;;
38725;SDS011;24474;48.906;8.808;2023-07-24T04:20:35;9.85;;;6.15;;
38725;SDS011;24474;48.906;8.808;2023-07-24T04:23:01;10.48;;;6.32;;
38725;SDS011;24474;48.906;8.808;2023-07-24T04:25:27;9.43;;;6.50;;
38725;SDS011;24474;48.906;8.808;2023-07-24T04:27:53;9.85;;;6.18;;
38725;SDS011;24474;48.906;8.808;2023-07-24T04:30:18;12.52;;;6.47;;
38725;SDS011;24474;48.906;8.808;2023-07-24T04:32:44;11.52;;;7.20;;
38725;SDS011;24474;48.906;8.808;2023-07-24T04:35:11;10.90;;;6.60;;
38725;SDS011;24474;48.906;8.808;2023-07-24T04:37:36;10.88;;;6.45;;
38725;SDS011;24474;48.906;8.808;2023-07-24T04:40:02;9.23;;;6.15;;
38725;SDS011;24474;48.906;8.808;2023-07-24T04:42:29;14.55;;;6.55;;
38725;SDS011;24474;48.906;8.808;2023-07-24T04:44:55;11.52;;;6.72;;
38725;SDS011;24474;48.906;8.808;2023-07-24T04:47:21;10.38;;;6.90;;
38725;SDS011;24474;48.906;8.808;2023-07-24T04:49:46;10.43;;;6.68;;
38725;SDS011;24474;48.906;8.808;2023-07-24T04:52:12;11.65;;;6.53;;
38725;SDS011;24474;48.906;8.808;2023-07-24T04:54:38;10.02;;;6.32;;
38725;SDS011;24474;48.906;8.808;2023-07-24T04:57:04;8.80;;;6.40;;
38725;SDS011;24474;48.906;8.808;2023-07-24T04:59:29;9.18;;;6.22;;
38725;SDS011;24474;48.906;8.808;2023-07-24T05:01:55;12.50;;;6.75;;
38725;SDS011;24474;48.906;8.808;2023-07-24T05:04:21;9.85;;;6.55;;
38725;SDS011;24474;48.906;8.808;2023-07-24T05:06:46;9.50;;;6.53;;
38725;SDS011;24474;48.906;8.808;2023-07-24T05:09:12;10.68;;;6.88;;
38725;SDS011;24474;48.906;8.808;2023-07-24T05:11:39;10.85;;;6.78;;
38725;SDS011;24474;48.906;8.808;2023-07-24T05:14:06;13.88;;;6.88;;
38725;SDS011;24474;48.906;8.808;2023-07-24T05:16:34;10.23;;;6.30;;
38725;SDS011;24474;48.906;8.808;2023-07-24T05:19:01;12.05;;;6.57;;
38725;SDS011;24474;48.906;8.808;2023-07-24T05:21:27;10.43;;;6.22;;
38725;SDS011;24474;48.906;8.808;2023-07-24T05:23:53;11.85;;;6.40;;
38725;SDS011;24474;48.906;8.808;2023-07-24T05:26:21;11.70;;;6.68;;
38725;SDS011;24474;48.906;8.808;2023-07-24T05:28:49;11.50;;;7.00;;
38725;SDS011;24474;48.906;8.808;2023-07-24T05:31:18;10.93;;;6.28;;
38725;SDS011;24474;48.906;8.808;2023-07-24T05:33:44;11.25;;;6.63;;
38725;SDS011;24474;48.906;8.808;2023-07-24T05:36:12;11.63;;;6.82;;
38725;SDS011;24474;48.906;8.808;2023-07-24T05:38:38;9.00;;;6.10;;
38725;SDS011;24474;48.906;8.808;2023-07-24T05:41:04;11.40;;;7.20;;
38725;SDS011;24474;48.906;8.808;2023-07-24T05:43:30;11.35;;;7.22;;
38725;SDS011;24474;48.906;8.808;2023-07-24T05:45:57;12.48;;;6.90;;
38725;SDS011;24474;48.906;8.808;2023-07-24T05:48:25;10.82;;;6.72;;
38725;SDS011;24474;48.906;8.808;2023-07-24T05:50:52;10.27;;;7.05;;
38725;SDS011;24474;48.906;8.808;2023-07-24T05:53:17;11.02;;;6.70;;
38725;SDS011;24474;48.906;8.808;2023-07-24T05:55:45;9.25;;;6.35;;
38725;SDS011;24474;48.906;8.808;2023-07-24T05:58:10;12.77;;;7.10;;
38725;SDS011;24474;48.906;8.808;2023-07-24T06:00:36;9.35;;;6.15;;
38725;SDS011;24474;48.906;8.808;2023-07-24T06:03:04;10.45;;;6.53;;
38725;SDS011;24474;48.906;8.808;2023-07-24T06:05:30;7.85;;;5.43;;
38725;SDS011;24474;48.906;8.808;2023-07-24T06:07:59;11.05;;;7.18;;
38725;SDS011;24474;48.906;8.808;2023-07-24T06:10:24;11.32;;;6.88;;
38725;SDS011;24474;48.906;8.808;2023-07-24T06:12:50;12.13;;;6.88;;
38725;SDS011;24474;48.906;8.808;2023-07-24T06:15:15;11.77;;;6.57;;
38725;SDS011;24474;48.906;8.808;2023-07-24T06:17:41;11.05;;;6.90;;
38725;SDS011;24474;48.906;8.808;2023-07-24T06:20:07;10.25;;;6.63;;
38725;SDS011;24474;48.906;8.808;2023-07-24T06:22:33;11.43;;;6.40;;
38725;SDS011;24474;48.906;8.808;2023-07-24T06:24:58;10.43;;;6.25;;
38725;SDS011;24474;48.906;8.808;2023-07-24T06:27:24;10.00;;;6.53;;
38725;SDS011;24474;48.906;8.808;2023-07-24T06:29:49;10.98;;;6.22;;
38725;SDS011;24474;48.906;8.808;2023-07-24T06:32:15;9.35;;;6.13;;
38725;SDS011;24474;48.906;8.808;2023-07-24T06:34:41;10.43;;;6.55;;
38725;SDS011;24474;48.906;8.808;2023-07-24T06:37:06;12.18;;;6.45;;
38725;SDS011;24474;48.906;8.808;2023-07-24T06:39:32;9.93;;;6.95;;
38725;SDS011;24474;48.906;8.808;2023-07-24T06:41:58;9.07;;;5.93;;
38725;SDS011;24474;48.906;8.808;2023-07-24T06:44:24;10.35;;;6.80;;
38725;SDS011;24474;48.906;8.808;2023-07-24T06:46:49;11.88;;;6.22;;
38725;SDS011;24474;48.906;8.808;2023-07-24T06:49:18;10.68;;;6.80;;
38725;SDS011;24474;48.906;8.808;2023-07-24T06:51:45;9.88;;;6.32;;
38725;SDS011;24474;48.906;8.808;2023-07-24T06:54:12;12.27;;;7.10;;
38725;SDS011;24474;48.906;8.808;2023-07-24T06:56:40;10.95;;;5.88;;
38725;SDS011;24474;48.906;8.808;2023-07-24T06:59:09;9.32;;;6.20;;
38725;SDS011;24474;48.906;8.808;2023-07-24T07:01:36;10.48;;;6.65;;
38725;SDS011;24474;48.906;8.808;2023-07-24T07:04:03;12.00;;;6.65;;
38725;SDS011;24474;48.906;8.808;2023-07-24T07:06:29;9.60;;;6.20;;
38725;SDS011;24474;48.906;8.808;2023-07-24T07:08:56;11.90;;;6.68;;
38725;SDS011;24474;48.906;8.808;2023-07-24T07:11:22;10.05;;;6.28;;
38725;SDS011;24474;48.906;8.808;2023-07-24T07:13:49;10.05;;;5.80;;
38725;SDS011;24474;48.906;8.808;2023-07-24T07:16:15;9.57;;;6.30;;
38725;SDS011;24474;48.906;8.808;2023-07-24T07:18:41;10.23;;;6.70;;
38725;SDS011;24474;48.906;8.808;2023-07-24T07:21:08;8.90;;;6.07;;
38725;SDS011;24474;48.906;8.808;2023-07-24T07:23:34;9.98;;;6.88;;
38725;SDS011;24474;48.906;8.808;2023-07-24T07:26:00;11.80;;;6.35;;
38725;SDS011;24474;48.906;8.808;2023-07-24T07:28:28;11.70;;;6.45;;
38725;SDS011;24474;48.906;8.808;2023-07-24T07:30:55;10.23;;;6.25;;
38725;SDS011;24474;48.906;8.808;2023-07-24T07:33:21;9.43;;;6.43;;
38725;SDS011;24474;48.906;8.808;2023-07-24T07:35:48;10.27;;;6.50;;
38725;SDS011;24474;48.906;8.808;2023-07-24T07:38:16;9.10;;;5.93;;
38725;SDS011;24474;48.906;8.808;2023-07-24T07:40:41;10.65;;;6.50;;
38725;SDS011;24474;48.906;8.808;2023-07-24T07:43:08;10.73;;;7.15;;
38725;SDS011;24474;48.906;8.808;2023-07-24T07:45:35;10.55;;;6.47;;
38725;SDS011;24474;48.906;8.808;2023-07-24T07:48:02;11.82;;;6.50;;
38725;SDS011;24474;48.906;8.808;2023-07-24T07:50:28;10.45;;;6.72;;
38725;SDS011;24474;48.906;8.808;2023-07-24T07:52:55;10.48;;;6.50;;
38725;SDS011;24474;48.906;8.808;2023-07-24T07:55:21;9.45;;;6.22;;
38725;SDS011;24474;48.906;8.808;2023-07-24T07:57:47;10.57;;;6.72;;
38725;SDS011;24474;48.906;8.808;2023-07-24T08:00:14;12.50;;;6.97;;
38725;SDS011;24474;48.906;8.808;2023-07-24T08:02:42;9.88;;;6.15;;
38725;SDS011;24474;48.906;8.808;2023-07-24T08:05:09;9.02;;;5.85;;
38725;SDS011;24474;48.906;8.808;2023-07-24T08:07:35;12.95;;;6.20;;
38725;SDS011;24474;48.906;8.808;2023-07-24T08:10:03;10.27;;;6.28;;
38725;SDS011;24474;48.906;8.808;2023-07-24T08:12:31;9.05;;;6.07;;
38725;SDS011;24474;48.906;8.808;2023-07-24T08:14:57;8.85;;;5.95;;
38725;SDS011;24474;48.906;8.808;2023-07-24T08:17:23;10.43;;;5.85;;
38725;SDS011;24474;48.906;8.808;2023-07-24T08:19:50;8.82;;;5.80;;
38725;SDS011;24474;48.906;8.808;2023-07-24T08:22:16;9.93;;;5.90;;
38725;SDS011;24474;48.906;8.808;2023-07-24T08:24:44;9.10;;;5.68;;
38725;SDS011;24474;48.906;8.808;2023-07-24T08:27:11;8.35;;;5.35;;
38725;SDS011;24474;48.906;8.808;2023-07-24T08:29:37;10.10;;;5.75;;
38725;SDS011;24474;48.906;8.808;2023-07-24T08:32:03;10.48;;;5.75;;
38725;SDS011;24474;48.906;8.808;2023-07-24T08:34:29;9.40;;;5.38;;
38725;SDS011;24474;48.906;8.808;2023-07-24T08:36:56;9.90;;;5.90;;
38725;SDS011;24474;48.906;8.808;2023-07-24T08:39:22;8.57;;;6.10;;
38725;SDS011;24474;48.906;8.808;2023-07-24T08:41:47;8.63;;;5.15;;
38725;SDS011;24474;48.906;8.808;2023-07-24T08:44:14;7.72;;;5.22;;
38725;SDS011;24474;48.906;8.808;2023-07-24T08:46:41;11.27;;;5.65;;
38725;SDS011;24474;48.906;8.808;2023-07-24T08:49:12;8.40;;;5.85;;
38725;SDS011;24474;48.906;8.808;2023-07-24T08:51:42;7.93;;;5.55;;
38725;SDS011;24474;48.906;8.808;2023-07-24T08:56:37;7.65;;;5.53;;
38725;SDS011;24474;48.906;8.808;2023-07-24T08:59:05;8.55;;;5.65;;
38725;SDS011;24474;48.906;8.808;2023-07-24T09:01:31;9.02;;;5.95;;
38725;SDS011;24474;48.906;8.808;2023-07-24T09:03:56;9.48;;;5.38;;
38725;SDS011;24474;48.906;8.808;2023-07-24T09:06:22;9.63;;;5.90;;
38725;SDS011;24474;48.906;8.808;2023-07-24T09:08:53;8.88;;;6.03;;
38725;SDS011;24474;48.906;8.808;2023-07-24T09:11:20;10.05;;;5.60;;
38725;SDS011;24474;48.906;8.808;2023-07-24T09:13:47;9.00;;;5.85;;
38725;SDS011;24474;48.906;8.808;2023-07-24T09:16:24;9.80;;;5.75;;
38725;SDS011;24474;48.906;8.808;2023-07-24T09:18:51;8.60;;;5.82;;
38725;SDS011;24474;48.906;8.808;2023-07-24T09:21:28;11.85;;;5.97;;
38725;SDS011;24474;48.906;8.808;2023-07-24T09:23:56;10.68;;;6.03;;
38725;SDS011;24474;48.906;8.808;2023-07-24T09:26:23;8.55;;;5.65;;
38725;SDS011;24474;48.906;8.808;2023-07-24T09:28:52;8.98;;;5.80;;
38725;SDS011;24474;48.906;8.808;2023-07-24T09:31:20;9.07;;;5.45;;
38725;SDS011;24474;48.906;8.808;2023-07-24T09:33:46;9.35;;;5.70;;
38725;SDS011;24474;48.906;8.808;2023-07-24T09:36:12;8.20;;;5.78;;
38725;SDS011;24474;48.906;8.808;2023-07-24T09:38:38;8.57;;;5.43;;
38725;SDS011;24474;48.906;8.808;2023-07-24T09:41:05;8.07;;;5.45;;
38725;SDS011;24474;48.906;8.808;2023-07-24T09:43:31;11.82;;;6.57;;
38725;SDS011;24474;48.906;8.808;2023-07-24T09:45:58;8.20;;;5.35;;
38725;SDS011;24474;48.906;8.808;2023-07-24T09:48:25;8.63;;;5.60;;
38725;SDS011;24474;48.906;8.808;2023-07-24T09:50:55;8.88;;;5.57;;
38725;SDS011;24474;48.906;8.808;2023-07-24T09:56:08;9.05;;;5.47;;
38725;SDS011;24474;48.906;8.808;2023-07-24T09:58:36;8.30;;;4.97;;
38725;SDS011;24474;48.906;8.808;2023-07-24T10:01:03;7.72;;;5.47;;
38725;SDS011;24474;48.906;8.808;2023-07-24T10:03:35;6.90;;;4.70;;
38725;SDS011;24474;48.906;8.808;2023-07-24T10:06:03;9.20;;;5.07;;
38725;SDS011;24474;48.906;8.808;2023-07-24T10:08:31;7.32;;;4.82;;
38725;SDS011;24474;48.906;8.808;2023-07-24T10:11:00;9.93;;;5.60;;
38725;SDS011;24474;48.906;8.808;2023-07-24T10:13:26;8.38;;;5.22;;
38725;SDS011;24474;48.906;8.808;2023-07-24T10:15:53;8.25;;;5.28;;
38725;SDS011;24474;48.906;8.808;2023-07-24T10:18:26;8.00;;;5.20;;
38725;SDS011;24474;48.906;8.808;2023-07-24T10:21:05;7.80;;;5.05;;
38725;SDS011;24474;48.906;8.808;2023-07-24T10:23:35;8.15;;;5.07;;
38725;SDS011;24474;48.906;8.808;2023-07-24T10:26:03;8.38;;;5.22;;
38725;SDS011;24474;48.906;8.808;2023-07-24T10:28:33;9.57;;;5.72;;
38725;SDS011;24474;48.906;8.808;2023-07-24T10:31:06;9.82;;;5.60;;
38725;SDS011;24474;48.906;8.808;2023-07-24T10:33:45;8.25;;;5.65;;
38725;SDS011;24474;48.906;8.808;2023-07-24T10:36:11;10.05;;;5.78;;
38725;SDS011;24474;48.906;8.808;2023-07-24T10:38:43;8.25;;;5.45;;
38725;SDS011;24474;48.906;8.808;2023-07-24T10:41:13;7.97;;;5.35;;
38725;SDS011;24474;48.906;8.808;2023-07-24T10:43:50;10.15;;;5.60;;
38725;SDS011;24474;48.906;8.808;2023-07-24T10:46:19;8.50;;;5.68;;
38725;SDS011;24474;48.906;8.808;2023-07-24T10:48:47;8.20;;;5.50;;
38725;SDS011;24474;48.906;8.808;2023-07-24T10:51:16;9.85;;;5.57;;
38725;SDS011;24474;48.906;8.808;2023-07-24T10:53:46;9.65;;;6.22;;
38725;SDS011;24474;48.906;8.808;2023-07-24T10:56:15;9.90;;;6.00;;
38725;SDS011;24474;48.906;8.808;2023-07-24T10:58:45;9.35;;;6.00;;
38725;SDS011;24474;48.906;8.808;2023-07-24T11:01:11;8.02;;;5.57;;
38725;SDS011;24474;48.906;8.808;2023-07-24T11:03:40;9.73;;;6.00;;
38725;SDS011;24474;48.906;8.808;2023-07-24T11:06:19;8.40;;;5.53;;
38725;SDS011;24474;48.906;8.808;2023-07-24T11:08:51;9.48;;;6.00;;
38725;SDS011;24474;48.906;8.808;2023-07-24T11:13:44;7.20;;;5.30;;
38725;SDS011;24474;48.906;8.808;2023-07-24T11:16:11;9.70;;;5.57;;
38725;SDS011;24474;48.906;8.808;2023-07-24T11:18:47;8.02;;;5.35;;
38725;SDS011;24474;48.906;8.808;2023-07-24T11:21:15;7.82;;;5.60;;
38725;SDS011;24474;48.906;8.808;2023-07-24T11:23:49;8.27;;;5.30;;
38725;SDS011;24474;48.906;8.808;2023-07-24T11:26:21;9.15;;;5.70;;
38725;SDS011;24474;48.906;8.808;2023-07-24T11:28:48;8.65;;;5.90;;
38725;SDS011;24474;48.906;8.808;2023-07-24T11:31:16;8.20;;;5.20;;
38725;SDS011;24474;48.906;8.808;2023-07-24T11:33:46;10.75;;;5.63;;
38725;SDS011;24474;48.906;8.808;2023-07-24T11:36:14;7.30;;;5.30;;
38725;SDS011;24474;48.906;8.808;2023-07-24T11:38:40;8.15;;;5.78;;
38725;SDS011;24474;48.906;8.808;2023-07-24T11:41:08;8.00;;;5.10;;
38725;SDS011;24474;48.906;8.808;2023-07-24T11:43:44;9.38;;;5.82;;
38725;SDS011;24474;48.906;8.808;2023-07-24T11:46:22;9.20;;;5.75;;
38725;SDS011;24474;48.906;8.808;2023-07-24T11:48:50;8.60;;;5.70;;
38725;SDS011;24474;48.906;8.808;2023-07-24T11:51:18;8.52;;;5.47;;
38725;SDS011;24474;48.906;8.808;2023-07-24T11:53:45;8.25;;;5.07;;
38725;SDS011;24474;48.906;8.808;2023-07-24T11:56:15;8.10;;;5.70;;
38725;SDS011;24474;48.906;8.808;2023-07-24T11:58:44;8.35;;;5.10;;
38725;SDS011;24474;48.906;8.808;2023-07-24T12:01:14;9.95;;;4.90;;
38725;SDS011;24474;48.906;8.808;2023-07-24T12:03:41;8.15;;;5.13;;
38725;SDS011;24474;48.906;8.808;2023-07-24T12:06:16;8.88;;;5.10;;
38725;SDS011;24474;48.906;8.808;2023-07-24T12:08:44;9.15;;;5.93;;
38725;SDS011;24474;48.906;8.808;2023-07-24T12:11:20;8.88;;;4.93;;
38725;SDS011;24474;48.906;8.808;2023-07-24T12:13:45;9.57;;;5.32;;
38725;SDS011;24474;48.906;8.808;2023-07-24T12:16:12;8.93;;;4.80;;
38725;SDS011;24474;48.906;8.808;2023-07-24T12:18:42;7.90;;;4.60;;
38725;SDS011;24474;48.906;8.808;2023-07-24T12:21:08;8.43;;;5.22;;
38725;SDS011;24474;48.906;8.808;2023-07-24T12:23:35;6.78;;;4.63;;
38725;SDS011;24474;48.906;8.808;2023-07-24T12:26:00;6.78;;;5.10;;
38725;SDS011;24474;48.906;8.808;2023-07-24T12:28:27;8.30;;;5.18;;
38725;SDS011;24474;48.906;8.808;2023-07-24T12:30:54;8.30;;;5.05;;
38725;SDS011;24474;48.906;8.808;2023-07-24T12:33:21;8.05;;;5.28;;
38725;SDS011;24474;48.906;8.808;2023-07-24T12:35:49;7.20;;;5.28;;
38725;SDS011;24474;48.906;8.808;2023-07-24T12:38:18;8.88;;;4.70;;
38725;SDS011;24474;48.906;8.808;2023-07-24T12:40:45;10.32;;;5.80;;
38725;SDS011;24474;48.906;8.808;2023-07-24T12:43:12;7.47;;;5.43;;
38725;SDS011;24474;48.906;8.808;2023-07-24T12:45:40;7.65;;;5.32;;
38725;SDS011;24474;48.906;8.808;2023-07-24T12:48:07;7.15;;;4.78;;
38725;SDS011;24474;48.906;8.808;2023-07-24T12:50:34;7.35;;;5.05;;
38725;SDS011;24474;48.906;8.808;2023-07-24T12:53:01;8.68;;;5.07;;
38725;SDS011;24474;48.906;8.808;2023-07-24T12:55:27;8.65;;;5.00;;
38725;SDS011;24474;48.906;8.808;2023-07-24T12:57:54;12.05;;;5.75;;
38725;SDS011;24474;48.906;8.808;2023-07-24T13:00:22;9.00;;;5.07;;
38725;SDS011;24474;48.906;8.808;2023-07-24T13:02:50;7.95;;;4.97;;
38725;SDS011;24474;48.906;8.808;2023-07-24T13:05:15;8.05;;;5.07;;
38725;SDS011;24474;48.906;8.808;2023-07-24T13:07:42;7.25;;;5.07;;
38725;SDS011;24474;48.906;8.808;2023-07-24T13:10:08;6.82;;;4.70;;
38725;SDS011;24474;48.906;8.808;2023-07-24T13:12:35;8.02;;;5.20;;
38725;SDS011;24474;48.906;8.808;2023-07-24T13:15:02;8.57;;;5.22;;
38725;SDS011;24474;48.906;8.808;2023-07-24T13:17:30;7.68;;;5.07;;
38725;SDS011;24474;48.906;8.808;2023-07-24T13:19:57;6.80;;;4.47;;
38725;SDS011;24474;48.906;8.808;2023-07-24T13:22:24;7.82;;;4.85;;
38725;SDS011;24474;48.906;8.808;2023-07-24T13:24:49;7.20;;;4.70;;
38725;SDS011;24474;48.906;8.808;2023-07-24T13:27:16;8.02;;;4.95;;
38725;SDS011;24474;48.906;8.808;2023-07-24T13:29:43;7.15;;;4.55;;
38725;SDS011;24474;48.906;8.808;2023-07-24T13:32:08;9.27;;;5.05;;
38725;SDS011;24474;48.906;8.808;2023-07-24T13:34:37;7.05;;;4.50;;
38725;SDS011;24474;48.906;8.808;2023-07-24T13:37:03;8.45;;;5.10;;
38725;SDS011;24474;48.906;8.808;2023-07-24T13:39:30;6.60;;;4.53;;
38725;SDS011;24474;48.906;8.808;2023-07-24T13:41:57;6.53;;;4.28;;
38725;SDS011;24474;48.906;8.808;2023-07-24T13:44:24;8.07;;;4.93;;
38725;SDS011;24474;48.906;8.808;2023-07-24T13:46:51;7.65;;;4.65;;
38725;SDS011;24474;48.906;8.808;2023-07-24T13:49:18;7.45;;;4.45;;
38725;SDS011;24474;48.906;8.808;2023-07-24T13:51:45;6.93;;;4.38;;
38725;SDS011;24474;48.906;8.808;2023-07-24T13:54:11;7.75;;;4.80;;
38725;SDS011;24474;48.906;8.808;2023-07-24T13:56:37;7.10;;;4.57;;
38725;SDS011;24474;48.906;8.808;2023-07-24T13:59:04;6.93;;;4.75;;
38725;SDS011;24474;48.906;8.808;2023-07-24T14:01:31;7.32;;;4.40;;
38725;SDS011;24474;48.906;8.808;2023-07-24T14:03:58;8.20;;;4.95;;
38725;SDS011;24474;48.906;8.808;2023-07-24T14:06:26;8.23;;;4.88;;
38725;SDS011;24474;48.906;8.808;2023-07-24T14:08:53;7.50;;;4.78;;
38725;SDS011;24474;48.906;8.808;2023-07-24T14:11:20;7.03;;;4.55;;
38725;SDS011;24474;48.906;8.808;2023-07-24T14:13:47;5.63;;;3.97;;
38725;SDS011;24474;48.906;8.808;2023-07-24T14:16:14;6.70;;;4.60;;
38725;SDS011;24474;48.906;8.808;2023-07-24T14:18:41;7.38;;;4.68;;
38725;SDS011;24474;48.906;8.808;2023-07-24T14:21:07;6.53;;;4.78;;
38725;SDS011;24474;48.906;8.808;2023-07-24T14:23:33;9.38;;;4.82;;
38725;SDS011;24474;48.906;8.808;2023-07-24T14:25:59;6.90;;;4.40;;
38725;SDS011;24474;48.906;8.808;2023-07-24T14:28:25;6.90;;;4.38;;
38725;SDS011;24474;48.906;8.808;2023-07-24T14:30:51;8.27;;;4.13;;
38725;SDS011;24474;48.906;8.808;2023-07-24T14:33:16;6.07;;;4.05;;
38725;SDS011;24474;48.906;8.808;2023-07-24T14:35:43;6.25;;;4.10;;
38725;SDS011;24474;48.906;8.808;2023-07-24T14:38:08;5.78;;;3.92;;
38725;SDS011;24474;48.906;8.808;2023-07-24T14:40:34;6.10;;;4.03;;
38725;SDS011;24474;48.906;8.808;2023-07-24T14:43:00;6.10;;;3.83;;
38725;SDS011;24474;48.906;8.808;2023-07-24T14:45:25;5.88;;;3.83;;
38725;SDS011;24474;48.906;8.808;2023-07-24T14:47:51;6.05;;;4.03;;
38725;SDS011;24474;48.906;8.808;2023-07-24T14:50:17;5.30;;;3.53;;
38725;SDS011;24474;48.906;8.808;2023-07-24T14:52:42;5.45;;;3.45;;
38725;SDS011;24474;48.906;8.808;2023-07-24T14:55:08;6.00;;;3.88;;